Time;durP1;ratioP1;P1;durP2;ratioP2;P2;SDS_P1;SDS_P2;PMS_P1;PMS_P2;Temp;Humidity;BMP_temperature;BMP_pressure;BME280_temperature;BME280_humidity;BME280_pressure;Samples;Min_cycle;Max_cycle;Signal;HPM_P1;HPM_P2
2022/09/02 00:00:50;;;;;;;7.55;4.57;;;;;;;;;;5009154;28;20030;-71
2022/09/02 00:03:17;;;;;;;9.18;4.20;;;;;;;;;;5009150;28;20055;-70
2022/09/02 00:05:42;;;;;;;7.95;4.05;;;;;;;;;;5009159;28;20022;-70
2022/09/02 00:08:09;;;;;;;6.53;4.22;;;;;;;;;;5009483;28;20026;-70
2022/09/02 00:10:37;;;;;;;6.28;4.20;;;;;;;;;;5009001;28;20060;-70
2022/09/02 00:13:03;;;;;;;8.50;4.18;;;;;;;;;;5008764;28;20446;-70
2022/09/02 00:15:29;;;;;;;8.75;4.38;;;;;;;;;;5008641;28;20030;-71
2022/09/02 00:17:55;;;;;;;8.05;4.20;;;;;;;;;;5008917;28;20382;-70
2022/09/02 00:20:20;;;;;;;7.88;4.22;;;;;;;;;;5008901;28;20088;-71
2022/09/02 00:22:46;;;;;;;7.38;4.47;;;;;;;;;;5008950;28;20086;-71
2022/09/02 00:25:11;;;;;;;9.50;4.15;;;;;;;;;;5008933;28;20394;-70
2022/09/02 00:27:37;;;;;;;9.80;4.10;;;;;;;;;;5008705;28;20049;-70
2022/09/02 00:30:04;;;;;;;9.32;4.50;;;;;;;;;;5008800;28;20053;-70
2022/09/02 00:32:30;;;;;;;10.57;4.38;;;;;;;;;;5008755;28;20037;-70
2022/09/02 00:34:56;;;;;;;8.35;4.40;;;;;;;;;;5008433;28;20022;-70
2022/09/02 00:37:23;;;;;;;7.70;4.53;;;;;;;;;;5008555;28;20095;-71
2022/09/02 00:39:49;;;;;;;7.40;4.47;;;;;;;;;;5008722;28;20612;-70
2022/09/02 00:42:15;;;;;;;6.43;4.13;;;;;;;;;;5008559;28;20367;-71
2022/09/02 00:44:40;;;;;;;8.25;4.30;;;;;;;;;;5008511;28;20191;-71
2022/09/02 00:47:06;;;;;;;8.05;4.03;;;;;;;;;;5008447;28;20055;-70
2022/09/02 00:49:34;;;;;;;7.25;4.25;;;;;;;;;;5008314;28;20022;-71
2022/09/02 00:52:06;;;;;;;6.22;4.30;;;;;;;;;;5008557;28;20105;-71
2022/09/02 00:54:35;;;;;;;8.02;4.22;;;;;;;;;;5008388;28;20032;-72
2022/09/02 00:57:05;;;;;;;7.72;4.07;;;;;;;;;;5008193;28;20029;-71
2022/09/02 00:59:43;;;;;;;9.75;4.40;;;;;;;;;;5008436;28;20110;-70
2022/09/02 01:02:09;;;;;;;9.07;4.45;;;;;;;;;;5008351;28;20057;-71
2022/09/02 01:04:35;;;;;;;7.30;4.50;;;;;;;;;;5008408;28;20041;-72
2022/09/02 01:07:02;;;;;;;7.15;4.25;;;;;;;;;;5007972;28;20094;-71
2022/09/02 01:09:27;;;;;;;11.77;4.35;;;;;;;;;;5008213;28;20033;-71
2022/09/02 01:11:54;;;;;;;9.10;4.35;;;;;;;;;;5008210;28;20022;-72
2022/09/02 01:14:20;;;;;;;7.72;4.05;;;;;;;;;;4990525;28;20030;-71
2022/09/02 01:16:50;;;;;;;8.25;4.20;;;;;;;;;;5007979;28;20069;-71
2022/09/02 01:19:23;;;;;;;8.30;4.15;;;;;;;;;;5009996;28;20091;-71
2022/09/02 01:21:54;;;;;;;6.82;4.20;;;;;;;;;;5008178;28;20038;-72
2022/09/02 01:24:22;;;;;;;11.40;4.55;;;;;;;;;;5008066;28;20087;-71
2022/09/02 01:26:51;;;;;;;8.23;4.20;;;;;;;;;;5007730;28;20600;-71
2022/09/02 01:29:16;;;;;;;5.88;3.85;;;;;;;;;;5007989;28;20046;-71
2022/09/02 01:31:42;;;;;;;8.18;4.07;;;;;;;;;;5008264;28;20065;-71
2022/09/02 01:34:07;;;;;;;7.65;3.95;;;;;;;;;;5008390;28;20095;-72
2022/09/02 01:36:37;;;;;;;9.52;4.05;;;;;;;;;;5007629;28;20037;-71
2022/09/02 01:39:03;;;;;;;7.40;4.07;;;;;;;;;;4990258;28;20025;-71
2022/09/02 01:41:28;;;;;;;9.05;4.32;;;;;;;;;;5007621;28;20392;-72
2022/09/02 01:43:54;;;;;;;6.57;3.90;;;;;;;;;;5007515;28;20049;-73
2022/09/02 01:46:21;;;;;;;6.72;3.92;;;;;;;;;;5007432;28;20022;-73
2022/09/02 01:48:47;;;;;;;9.30;4.40;;;;;;;;;;5007700;28;20740;-72
2022/09/02 01:51:16;;;;;;;7.22;3.97;;;;;;;;;;5007241;28;20050;-72
2022/09/02 01:53:42;;;;;;;8.13;3.92;;;;;;;;;;5007653;28;20026;-72
2022/09/02 01:56:07;;;;;;;6.80;3.80;;;;;;;;;;5007374;28;20026;-72
2022/09/02 01:58:33;;;;;;;7.13;3.90;;;;;;;;;;5007393;28;20018;-72
2022/09/02 02:00:58;;;;;;;8.18;4.10;;;;;;;;;;5008847;28;20082;-72
2022/09/02 02:03:24;;;;;;;8.60;4.10;;;;;;;;;;5007629;28;20038;-72
2022/09/02 02:05:49;;;;;;;7.93;4.00;;;;;;;;;;5007729;28;20025;-72
2022/09/02 02:08:15;;;;;;;8.55;4.28;;;;;;;;;;5007567;28;20026;-72
2022/09/02 02:10:41;;;;;;;8.38;3.85;;;;;;;;;;5007385;28;20097;-73
2022/09/02 02:13:07;;;;;;;9.85;4.07;;;;;;;;;;5007353;28;20034;-71
2022/09/02 02:15:36;;;;;;;8.52;4.15;;;;;;;;;;5007112;28;20030;-71
2022/09/02 02:18:01;;;;;;;5.72;3.58;;;;;;;;;;5007050;28;20030;-73
2022/09/02 02:20:27;;;;;;;8.93;4.20;;;;;;;;;;5007022;28;20030;-71
2022/09/02 02:22:52;;;;;;;5.00;3.85;;;;;;;;;;5007422;28;20185;-71
2022/09/02 02:25:18;;;;;;;9.73;3.72;;;;;;;;;;5007212;28;20113;-71
2022/09/02 02:27:44;;;;;;;8.32;3.78;;;;;;;;;;5007027;28;20446;-71
2022/09/02 02:30:11;;;;;;;7.30;3.80;;;;;;;;;;5007265;28;20030;-71
2022/09/02 02:32:37;;;;;;;8.30;3.80;;;;;;;;;;5006974;28;20109;-71
2022/09/02 02:35:03;;;;;;;8.50;3.60;;;;;;;;;;5006959;28;20109;-70
2022/09/02 02:37:28;;;;;;;7.35;3.70;;;;;;;;;;5006652;28;20413;-71
2022/09/02 02:39:54;;;;;;;7.13;3.55;;;;;;;;;;5007044;28;20482;-71
2022/09/02 02:42:20;;;;;;;6.80;3.67;;;;;;;;;;5006927;28;20059;-72
2022/09/02 02:44:45;;;;;;;6.88;3.65;;;;;;;;;;5006791;28;20190;-71
2022/09/02 02:47:11;;;;;;;6.32;3.80;;;;;;;;;;5006820;28;20038;-72
2022/09/02 02:49:41;;;;;;;6.75;3.80;;;;;;;;;;5006901;28;20065;-74
2022/09/02 02:52:08;;;;;;;8.63;3.65;;;;;;;;;;5006790;28;20026;-73
2022/09/02 02:54:36;;;;;;;8.15;3.65;;;;;;;;;;5006774;28;20062;-72
2022/09/02 02:57:04;;;;;;;8.30;3.47;;;;;;;;;;5006493;28;20026;-73
2022/09/02 02:59:29;;;;;;;8.40;3.55;;;;;;;;;;5007075;28;20026;-73
2022/09/02 03:01:55;;;;;;;5.22;3.55;;;;;;;;;;5007075;28;20026;-72
2022/09/02 03:04:21;;;;;;;5.95;3.38;;;;;;;;;;5010093;28;20040;-74
2022/09/02 03:06:46;;;;;;;6.72;3.78;;;;;;;;;;5009925;28;20025;-72
2022/09/02 03:09:12;;;;;;;7.05;3.50;;;;;;;;;;5010094;28;20022;-73
2022/09/02 03:11:37;;;;;;;5.88;3.40;;;;;;;;;;5010102;28;20032;-73
2022/09/02 03:14:04;;;;;;;6.20;3.30;;;;;;;;;;4992129;28;20033;-72
2022/09/02 03:16:29;;;;;;;6.47;3.78;;;;;;;;;;5009833;28;20673;-72
2022/09/02 03:18:55;;;;;;;7.35;3.50;;;;;;;;;;5010253;28;20065;-72
2022/09/02 03:21:20;;;;;;;6.90;3.28;;;;;;;;;;5009953;28;20030;-73
2022/09/02 03:23:47;;;;;;;11.23;3.70;;;;;;;;;;5009901;28;20074;-73
2022/09/02 03:26:16;;;;;;;5.80;3.50;;;;;;;;;;5009645;28;20053;-73
2022/09/02 03:28:41;;;;;;;6.22;3.50;;;;;;;;;;5009493;28;20508;-73
2022/09/02 03:31:15;;;;;;;8.32;3.35;;;;;;;;;;5009581;28;20034;-73
2022/09/02 03:33:40;;;;;;;6.18;3.25;;;;;;;;;;5009710;28;20374;-73
2022/09/02 03:36:06;;;;;;;5.63;3.33;;;;;;;;;;5009651;28;20029;-72
2022/09/02 03:38:34;;;;;;;4.55;3.30;;;;;;;;;;5009621;28;20074;-73
2022/09/02 03:40:59;;;;;;;8.52;3.30;;;;;;;;;;5009605;28;20030;-73
2022/09/02 03:43:25;;;;;;;5.93;3.35;;;;;;;;;;5009171;28;20420;-71
2022/09/02 03:45:50;;;;;;;5.43;3.20;;;;;;;;;;5009432;28;20159;-70
2022/09/02 03:48:16;;;;;;;5.25;3.10;;;;;;;;;;5009218;28;20480;-70
2022/09/02 03:50:44;;;;;;;6.45;3.20;;;;;;;;;;5009691;28;20037;-70
2022/09/02 03:53:10;;;;;;;8.60;3.30;;;;;;;;;;5009508;28;20026;-70
2022/09/02 03:55:36;;;;;;;9.30;3.33;;;;;;;;;;5009408;28;20061;-70
2022/09/02 03:58:02;;;;;;;6.10;3.00;;;;;;;;;;5009116;28;20371;-70
2022/09/02 04:00:28;;;;;;;5.45;2.88;;;;;;;;;;5009257;28;20037;-71
2022/09/02 04:02:54;;;;;;;7.15;3.20;;;;;;;;;;5009058;28;20514;-71
2022/09/02 04:05:21;;;;;;;6.68;3.38;;;;;;;;;;5008955;28;20543;-71
2022/09/02 04:07:47;;;;;;;5.53;3.10;;;;;;;;;;5009134;28;20496;-70
2022/09/02 04:10:13;;;;;;;7.90;3.30;;;;;;;;;;5009348;28;20026;-71
2022/09/02 04:12:39;;;;;;;5.97;3.10;;;;;;;;;;5008708;28;20071;-70
2022/09/02 04:15:06;;;;;;;6.43;3.30;;;;;;;;;;5009073;28;20026;-70
2022/09/02 04:17:35;;;;;;;5.50;2.78;;;;;;;;;;5008760;28;20049;-70
2022/09/02 04:20:01;;;;;;;4.65;2.92;;;;;;;;;;5008939;28;20050;-70
2022/09/02 04:22:26;;;;;;;4.97;2.90;;;;;;;;;;5008970;28;20668;-70
2022/09/02 04:24:52;;;;;;;4.78;3.00;;;;;;;;;;5008993;28;20022;-70
2022/09/02 04:27:17;;;;;;;5.97;3.08;;;;;;;;;;5008728;28;20026;-71
2022/09/02 04:29:42;;;;;;;5.68;3.40;;;;;;;;;;5008890;28;20018;-72
2022/09/02 04:32:08;;;;;;;5.15;3.10;;;;;;;;;;5008996;28;20018;-71
2022/09/02 04:34:33;;;;;;;5.50;2.90;;;;;;;;;;5008749;28;20409;-70
2022/09/02 04:36:59;;;;;;;5.88;3.25;;;;;;;;;;5008422;28;20078;-71
2022/09/02 04:39:24;;;;;;;8.23;3.17;;;;;;;;;;5008602;28;20018;-71
2022/09/02 04:41:50;;;;;;;5.00;3.25;;;;;;;;;;5008512;28;20022;-71
2022/09/02 04:44:15;;;;;;;5.63;3.20;;;;;;;;;;5008438;28;20413;-70
2022/09/02 04:46:41;;;;;;;5.00;3.22;;;;;;;;;;5008523;28;20063;-71
2022/09/02 04:49:07;;;;;;;7.97;3.63;;;;;;;;;;5008643;28;20473;-72
2022/09/02 04:51:33;;;;;;;5.57;3.15;;;;;;;;;;5008520;28;20058;-71
2022/09/02 04:53:59;;;;;;;8.63;3.15;;;;;;;;;;5008623;28;20103;-71
2022/09/02 04:56:26;;;;;;;5.32;2.90;;;;;;;;;;5008331;28;20033;-70
2022/09/02 04:58:53;;;;;;;5.22;3.15;;;;;;;;;;5008313;28;20065;-70
2022/09/02 05:01:25;;;;;;;5.55;3.10;;;;;;;;;;5008303;28;20030;-72
2022/09/02 05:03:52;;;;;;;6.15;3.22;;;;;;;;;;5011905;28;20029;-70
2022/09/02 05:06:26;;;;;;;5.55;3.08;;;;;;;;;;5011806;28;20018;-71
2022/09/02 05:08:52;;;;;;;7.88;3.10;;;;;;;;;;5010820;28;20071;-70
2022/09/02 05:11:20;;;;;;;5.68;3.35;;;;;;;;;;5008276;28;20101;-71
2022/09/02 05:13:50;;;;;;;8.43;3.40;;;;;;;;;;5007897;28;20087;-71
2022/09/02 05:16:17;;;;;;;8.35;3.30;;;;;;;;;;5008156;28;20029;-71
2022/09/02 05:18:43;;;;;;;5.38;3.20;;;;;;;;;;5007928;28;20034;-70
2022/09/02 05:21:09;;;;;;;5.82;3.35;;;;;;;;;;5008116;28;20060;-71
2022/09/02 05:23:34;;;;;;;6.43;3.60;;;;;;;;;;5008231;28;20030;-71
2022/09/02 05:26:04;;;;;;;7.57;3.40;;;;;;;;;;5007081;28;20509;-72
2022/09/02 05:28:30;;;;;;;6.30;3.45;;;;;;;;;;5007685;28;20106;-72
2022/09/02 05:31:04;;;;;;;5.20;2.92;;;;;;;;;;5008079;28;20041;-71
2022/09/02 05:33:30;;;;;;;6.18;3.30;;;;;;;;;;5008004;28;20514;-73
2022/09/02 05:35:56;;;;;;;8.15;3.50;;;;;;;;;;5007893;28;20022;-72
2022/09/02 05:38:21;;;;;;;5.60;3.55;;;;;;;;;;5007762;28;20196;-73
2022/09/02 05:40:47;;;;;;;4.78;3.20;;;;;;;;;;5008471;28;20030;-74
2022/09/02 05:43:12;;;;;;;8.35;3.05;;;;;;;;;;5009949;28;20026;-76
2022/09/02 05:45:38;;;;;;;5.22;3.20;;;;;;;;;;5009140;28;20022;-74
2022/09/02 05:49:04;;;;;;;9.88;3.58;;;;;;;;;;5008577;28;20022;-72
2022/09/02 05:50:48;;;;;;;8.45;3.20;;;;;;;;;;5012131;28;20316;-71
2022/09/02 05:53:14;;;;;;;7.30;3.40;;;;;;;;;;5008635;28;20117;-70
2022/09/02 05:55:40;;;;;;;7.00;3.50;;;;;;;;;;5009895;28;20038;-70
2022/09/02 05:58:06;;;;;;;7.57;3.17;;;;;;;;;;5016894;28;20026;-70
2022/09/02 06:00:31;;;;;;;5.85;3.03;;;;;;;;;;5017209;28;20450;-71
2022/09/02 06:02:57;;;;;;;7.35;3.50;;;;;;;;;;5017674;28;20041;-70
2022/09/02 06:05:23;;;;;;;7.07;3.25;;;;;;;;;;5017114;28;20026;-70
2022/09/02 06:07:48;;;;;;;6.75;3.08;;;;;;;;;;5015335;28;20026;-70
2022/09/02 06:10:13;;;;;;;6.38;3.33;;;;;;;;;;5012198;28;20029;-70
2022/09/02 06:12:40;;;;;;;5.50;3.20;;;;;;;;;;5017138;28;20290;-70
2022/09/02 06:15:06;;;;;;;5.60;3.22;;;;;;;;;;5012275;28;20022;-69
2022/09/02 06:17:31;;;;;;;6.40;3.20;;;;;;;;;;5014567;28;20030;-71
2022/09/02 06:19:57;;;;;;;6.45;3.20;;;;;;;;;;5016699;28;20037;-70
2022/09/02 06:22:22;;;;;;;5.35;3.33;;;;;;;;;;5017442;28;20042;-71
2022/09/02 06:24:48;;;;;;;6.10;3.20;;;;;;;;;;5013692;28;20026;-74
2022/09/02 06:27:13;;;;;;;6.05;3.20;;;;;;;;;;5017701;28;20025;-69
2022/09/02 06:29:39;;;;;;;7.05;3.30;;;;;;;;;;5018139;28;20060;-68
2022/09/02 06:32:04;;;;;;;7.40;3.22;;;;;;;;;;5017449;28;20030;-73
2022/09/02 06:34:29;;;;;;;9.65;3.60;;;;;;;;;;5018248;28;20030;-68
2022/09/02 06:36:56;;;;;;;5.15;3.15;;;;;;;;;;5020125;28;20052;-68
2022/09/02 06:39:24;;;;;;;8.70;3.30;;;;;;;;;;5021300;28;20290;-68
2022/09/02 06:41:50;;;;;;;8.23;3.38;;;;;;;;;;5021217;28;20318;-68
2022/09/02 06:44:18;;;;;;;6.43;3.25;;;;;;;;;;5021229;28;20046;-69
2022/09/02 06:46:47;;;;;;;5.78;3.45;;;;;;;;;;5021271;28;20213;-68
2022/09/02 06:49:17;;;;;;;6.15;3.00;;;;;;;;;;5019995;28;20034;-68
2022/09/02 06:51:44;;;;;;;;;;;;;;;;;;5020212;28;20044;-70
2022/09/02 06:54:13;;;;;;;5.53;3.10;;;;;;;;;;5020287;28;19915;-68
2022/09/02 06:56:39;;;;;;;5.65;3.10;;;;;;;;;;5020098;28;20034;-69
2022/09/02 06:59:06;;;;;;;7.13;3.00;;;;;;;;;;5019878;28;20074;-72
2022/09/02 07:01:32;;;;;;;7.60;3.33;;;;;;;;;;5019703;28;20046;-70
2022/09/02 07:06:46;;;;;;;6.82;3.25;;;;;;;;;;5021360;28;20344;-72
2022/09/02 07:09:16;;;;;;;8.90;3.33;;;;;;;;;;5021163;28;20070;-72
2022/09/02 07:11:41;;;;;;;7.55;3.20;;;;;;;;;;5020877;28;20139;-71
2022/09/02 07:14:06;;;;;;;8.32;3.40;;;;;;;;;;5021046;28;20026;-70
2022/09/02 07:16:36;;;;;;;6.38;3.22;;;;;;;;;;5019439;28;20067;-69
2022/09/02 07:19:02;;;;;;;6.65;3.17;;;;;;;;;;5020566;28;20033;-68
2022/09/02 07:21:29;;;;;;;6.40;3.28;;;;;;;;;;5020643;28;20030;-69
2022/09/02 07:23:56;;;;;;;5.88;3.13;;;;;;;;;;5019884;28;20061;-69
2022/09/02 07:26:22;;;;;;;6.57;3.38;;;;;;;;;;5019964;28;20045;-68
2022/09/02 07:28:47;;;;;;;9.93;3.30;;;;;;;;;;5018476;28;20030;-68
2022/09/02 07:31:15;;;;;;;6.82;3.67;;;;;;;;;;5018686;28;20313;-69
2022/09/02 07:33:41;;;;;;;6.50;3.25;;;;;;;;;;5019021;28;20033;-69
2022/09/02 07:36:10;;;;;;;8.68;3.22;;;;;;;;;;5017865;28;20030;-68
2022/09/02 07:38:37;;;;;;;7.57;3.33;;;;;;;;;;5025441;28;20032;-69
2022/09/02 07:41:03;;;;;;;8.13;3.70;;;;;;;;;;5059596;28;20049;-69
2022/09/02 07:43:30;;;;;;;8.70;3.50;;;;;;;;;;5008854;28;20084;-71
2022/09/02 07:45:58;;;;;;;7.60;3.30;;;;;;;;;;5012893;28;20065;-70
2022/09/02 07:48:25;;;;;;;5.93;3.00;;;;;;;;;;5006975;28;20109;-69
2022/09/02 07:50:51;;;;;;;7.03;3.17;;;;;;;;;;5006123;28;20607;-69
2022/09/02 07:53:18;;;;;;;6.20;3.47;;;;;;;;;;5006482;28;20034;-69
2022/09/02 07:55:44;;;;;;;6.28;3.10;;;;;;;;;;5007260;28;20054;-69
2022/09/02 07:58:11;;;;;;;7.75;3.60;;;;;;;;;;5005378;28;20042;-71
2022/09/02 08:00:37;;;;;;;5.68;3.05;;;;;;;;;;5005342;28;20057;-69
2022/09/02 08:03:03;;;;;;;10.57;3.10;;;;;;;;;;5007365;28;20064;-70
2022/09/02 08:05:31;;;;;;;7.13;3.08;;;;;;;;;;5008118;28;20030;-69
2022/09/02 08:07:57;;;;;;;6.30;2.97;;;;;;;;;;5007548;28;20022;-69
2022/09/02 08:10:24;;;;;;;7.63;2.97;;;;;;;;;;5010763;28;20236;-70
2022/09/02 08:12:50;;;;;;;6.30;3.13;;;;;;;;;;5004133;28;20105;-71
2022/09/02 08:15:18;;;;;;;6.47;3.25;;;;;;;;;;5003466;28;20061;-71
2022/09/02 08:17:45;;;;;;;7.00;3.20;;;;;;;;;;4993339;28;20052;-71
2022/09/02 08:20:12;;;;;;;4.97;3.20;;;;;;;;;;4988294;28;20072;-71
2022/09/02 08:22:38;;;;;;;6.25;2.83;;;;;;;;;;4988038;28;20034;-71
2022/09/02 08:25:04;;;;;;;8.88;2.90;;;;;;;;;;4988220;28;20056;-71
2022/09/02 08:27:33;;;;;;;6.00;2.90;;;;;;;;;;4990200;28;20106;-71
2022/09/02 08:30:00;;;;;;;7.90;3.20;;;;;;;;;;5002591;28;20030;-71
2022/09/02 08:32:26;;;;;;;7.88;3.40;;;;;;;;;;5008406;28;20093;-71
2022/09/02 08:34:51;;;;;;;8.90;3.03;;;;;;;;;;5018313;28;20255;-70
2022/09/02 08:37:17;;;;;;;5.35;2.80;;;;;;;;;;5010668;28;20042;-70
2022/09/02 08:39:47;;;;;;;7.88;3.17;;;;;;;;;;5004668;28;20416;-73
2022/09/02 08:42:44;;;;;;;6.35;2.97;;;;;;;;;;5018774;28;20140;-70
2022/09/02 08:45:17;;;;;;;8.48;3.45;;;;;;;;;;5001401;28;20054;-70
2022/09/02 08:47:46;;;;;;;6.57;2.80;;;;;;;;;;4999634;28;20034;-72
2022/09/02 08:50:15;;;;;;;7.03;3.15;;;;;;;;;;4995516;28;20026;-74
2022/09/02 08:52:53;;;;;;;10.25;2.95;;;;;;;;;;4996530;28;20045;-71
2022/09/02 08:55:25;;;;;;;6.60;3.28;;;;;;;;;;5008183;28;20020;-75
2022/09/02 08:57:51;;;;;;;7.63;3.20;;;;;;;;;;5008965;28;20036;-72
2022/09/02 09:00:16;;;;;;;18.70;3.70;;;;;;;;;;5005824;28;20014;-72
2022/09/02 09:03:00;;;;;;;10.40;3.50;;;;;;;;;;5007515;28;20049;-72
2022/09/02 09:05:55;;;;;;;6.18;3.05;;;;;;;;;;5010144;28;20082;-72
2022/09/02 09:08:29;;;;;;;33.28;4.10;;;;;;;;;;5013532;28;20041;-71
2022/09/02 09:11:19;;;;;;;19.33;3.80;;;;;;;;;;5001031;28;20030;-71
2022/09/02 09:14:09;;;;;;;7.15;2.97;;;;;;;;;;4998511;28;20033;-72
2022/09/02 09:16:54;;;;;;;9.35;3.08;;;;;;;;;;5005008;28;20034;-70
2022/09/02 09:19:48;;;;;;;23.48;3.53;;;;;;;;;;4998861;28;20031;-70
2022/09/02 09:22:18;;;;;;;11.50;3.13;;;;;;;;;;5002610;28;20050;-70
2022/09/02 09:24:45;;;;;;;7.15;3.10;;;;;;;;;;4998685;28;20027;-70
2022/09/02 09:27:14;;;;;;;7.43;2.80;;;;;;;;;;5007665;28;20270;-70
2022/09/02 09:29:40;;;;;;;6.72;3.10;;;;;;;;;;5018226;28;20044;-70
2022/09/02 09:32:18;;;;;;;13.18;3.20;;;;;;;;;;5009022;28;20322;-70
2022/09/02 09:34:52;;;;;;;10.27;3.03;;;;;;;;;;4998673;28;20029;-70
2022/09/02 09:37:31;;;;;;;6.53;3.20;;;;;;;;;;4998804;28;20072;-71
2022/09/02 09:39:57;;;;;;;5.32;2.90;;;;;;;;;;4998383;28;20322;-70
2022/09/02 09:42:34;;;;;;;6.65;3.05;;;;;;;;;;4998064;28;20033;-70
2022/09/02 09:45:13;;;;;;;5.85;3.15;;;;;;;;;;5013672;28;20053;-70
2022/09/02 09:47:39;;;;;;;10.23;3.20;;;;;;;;;;5018243;28;20040;-70
2022/09/02 09:50:14;;;;;;;6.95;3.15;;;;;;;;;;5017824;28;20026;-71
2022/09/02 09:52:40;;;;;;;5.82;2.80;;;;;;;;;;5017406;28;20041;-71
2022/09/02 09:55:11;;;;;;;7.07;3.08;;;;;;;;;;5017951;28;20330;-72
2022/09/02 09:57:38;;;;;;;6.60;3.05;;;;;;;;;;5016740;28;20310;-70
2022/09/02 10:00:31;;;;;;;4.93;2.92;;;;;;;;;;5009556;28;20477;-67
2022/09/02 10:03:03;;;;;;;4.78;3.10;;;;;;;;;;4977847;28;20050;-70
2022/09/02 10:05:37;;;;;;;4.32;3.10;;;;;;;;;;5015158;28;20030;-70
2022/09/02 10:08:15;;;;;;;5.63;2.88;;;;;;;;;;5013940;28;20030;-70
2022/09/02 10:11:01;;;;;;;5.07;3.15;;;;;;;;;;5009184;28;20026;-70
2022/09/02 10:13:31;;;;;;;6.60;3.10;;;;;;;;;;5012254;28;20026;-70
2022/09/02 10:16:27;;;;;;;4.43;3.00;;;;;;;;;;5014781;28;20036;-70
2022/09/02 10:18:55;;;;;;;4.57;2.67;;;;;;;;;;4991063;28;20033;-70
2022/09/02 10:21:58;;;;;;;4.47;2.80;;;;;;;;;;5009170;28;20034;-70
2022/09/02 10:24:50;;;;;;;5.70;2.63;;;;;;;;;;5013047;28;20109;-70
2022/09/02 10:27:28;;;;;;;4.38;2.75;;;;;;;;;;5016016;28;20028;-70
2022/09/02 10:30:20;;;;;;;4.15;2.88;;;;;;;;;;5017464;28;20111;-69
2022/09/02 10:33:12;;;;;;;6.68;2.70;;;;;;;;;;5014230;28;20046;-70
2022/09/02 10:35:48;;;;;;;4.97;2.90;;;;;;;;;;5013800;28;20049;-70
2022/09/02 10:38:38;;;;;;;5.45;2.80;;;;;;;;;;5015967;28;20075;-69
2022/09/02 10:41:15;;;;;;;5.10;2.83;;;;;;;;;;5015759;28;20055;-70
2022/09/02 10:43:57;;;;;;;5.13;2.70;;;;;;;;;;5010869;28;20109;-69
2022/09/02 10:46:24;;;;;;;4.85;2.70;;;;;;;;;;4996183;28;20037;-70
2022/09/02 10:49:05;;;;;;;4.57;2.60;;;;;;;;;;4995169;28;20023;-70
2022/09/02 10:51:50;;;;;;;6.50;2.72;;;;;;;;;;4996453;28;20025;-70
2022/09/02 10:54:21;;;;;;;3.72;2.50;;;;;;;;;;4976554;28;20270;-70
2022/09/02 10:56:49;;;;;;;5.85;2.70;;;;;;;;;;4995905;28;20036;-69
2022/09/02 10:59:21;;;;;;;5.07;2.72;;;;;;;;;;4999844;28;20054;-73
2022/09/02 11:02:09;;;;;;;4.07;2.40;;;;;;;;;;4984000;28;20026;-72
2022/09/02 11:04:50;;;;;;;5.18;2.60;;;;;;;;;;4985420;28;20080;-73
2022/09/02 11:07:22;;;;;;;4.68;2.55;;;;;;;;;;4984813;28;20038;-73
2022/09/02 11:09:59;;;;;;;4.47;2.55;;;;;;;;;;4967720;28;20359;-71
2022/09/02 11:12:33;;;;;;;6.05;2.65;;;;;;;;;;4985664;28;20037;-72
2022/09/02 11:15:15;;;;;;;4.78;2.53;;;;;;;;;;4985607;28;20029;-72
2022/09/02 11:17:43;;;;;;;4.10;2.60;;;;;;;;;;4986922;28;20030;-71
2022/09/02 11:20:57;;;;;;;5.70;2.60;;;;;;;;;;4986837;28;20025;-71
2022/09/02 11:23:42;;;;;;;6.25;2.80;;;;;;;;;;4987531;28;20038;-72
2022/09/02 11:26:16;;;;;;;334.05;20.95;;;;;;;;;;4990649;28;20109;-71
2022/09/02 11:28:53;;;;;;;373.70;23.17;;;;;;;;;;4990292;28;20029;-72
2022/09/02 11:31:29;;;;;;;81.88;7.18;;;;;;;;;;4990094;28;20501;-71
2022/09/02 11:33:57;;;;;;;52.88;5.40;;;;;;;;;;4990261;28;20026;-69
2022/09/02 11:36:25;;;;;;;223.80;14.40;;;;;;;;;;4990111;28;20607;-71
2022/09/02 11:38:56;;;;;;;23.33;3.40;;;;;;;;;;4990512;28;20026;-71
2022/09/02 11:41:34;;;;;;;9.35;3.00;;;;;;;;;;4989727;28;20509;-71
2022/09/02 11:44:20;;;;;;;4.55;2.55;;;;;;;;;;4989698;28;20153;-71
2022/09/02 11:47:06;;;;;;;8.25;2.88;;;;;;;;;;4990075;28;20537;-71
2022/09/02 11:49:50;;;;;;;5.78;2.65;;;;;;;;;;4989875;28;20474;-71
2022/09/02 11:52:56;;;;;;;6.03;2.83;;;;;;;;;;4990020;28;20033;-71
2022/09/02 11:55:33;;;;;;;11.27;3.03;;;;;;;;;;4990085;28;20103;-72
2022/09/02 11:58:00;;;;;;;5.90;3.00;;;;;;;;;;4989745;28;20026;-73
2022/09/02 12:00:35;;;;;;;6.20;2.95;;;;;;;;;;4989482;28;20030;-72
2022/09/02 12:03:03;;;;;;;4.90;2.58;;;;;;;;;;4990308;28;20053;-71
2022/09/02 12:05:29;;;;;;;4.13;2.80;;;;;;;;;;4989625;28;20101;-71
2022/09/02 12:08:27;;;;;;;5.45;2.70;;;;;;;;;;4989722;28;20101;-72
2022/09/02 12:10:52;;;;;;;7.90;2.63;;;;;;;;;;4989543;28;20027;-72
2022/09/02 12:13:47;;;;;;;5.45;2.78;;;;;;;;;;4989549;28;20022;-72
2022/09/02 12:16:15;;;;;;;6.05;2.70;;;;;;;;;;4989424;28;20065;-71
2022/09/02 12:18:53;;;;;;;4.00;2.50;;;;;;;;;;4989478;28;20057;-72
2022/09/02 12:21:23;;;;;;;5.03;2.60;;;;;;;;;;4989177;28;20026;-71
2022/09/02 12:23:48;;;;;;;6.07;2.67;;;;;;;;;;4989797;28;20033;-72
2022/09/02 12:26:16;;;;;;;5.22;2.50;;;;;;;;;;4989335;28;20018;-72
2022/09/02 12:28:46;;;;;;;7.45;2.83;;;;;;;;;;4989114;28;20612;-74
2022/09/02 12:31:32;;;;;;;4.80;2.80;;;;;;;;;;4989106;28;20417;-73
2022/09/02 12:34:01;;;;;;;5.85;2.75;;;;;;;;;;4998099;28;20026;-72
2022/09/02 12:36:36;;;;;;;5.93;2.80;;;;;;;;;;5011620;28;20084;-72
2022/09/02 12:39:23;;;;;;;5.05;2.90;;;;;;;;;;5014262;28;20122;-72
2022/09/02 12:42:10;;;;;;;6.03;2.90;;;;;;;;;;5010605;28;20062;-71
2022/09/02 12:44:54;;;;;;;6.00;3.03;;;;;;;;;;5008670;28;20056;-72
2022/09/02 12:47:25;;;;;;;4.85;2.80;;;;;;;;;;5009069;28;20052;-71
2022/09/02 12:50:06;;;;;;;6.80;2.90;;;;;;;;;;5010096;28;20025;-72
2022/09/02 12:52:42;;;;;;;6.95;3.20;;;;;;;;;;4989189;28;20065;-72
2022/09/02 12:55:24;;;;;;;5.00;2.60;;;;;;;;;;4988874;28;20042;-72
2022/09/02 12:58:11;;;;;;;6.63;2.80;;;;;;;;;;4989019;28;20501;-71
2022/09/02 13:00:45;;;;;;;8.23;2.75;;;;;;;;;;5007521;28;20037;-72
2022/09/02 13:03:29;;;;;;;4.68;2.80;;;;;;;;;;4999233;28;20516;-71
2022/09/02 13:06:00;;;;;;;7.32;2.60;;;;;;;;;;5008922;28;20080;-72
2022/09/02 13:08:41;;;;;;;9.60;3.03;;;;;;;;;;5012145;28;20030;-72
2022/09/02 13:11:43;;;;;;;22.00;3.28;;;;;;;;;;5008969;28;20056;-72
2022/09/02 13:14:28;;;;;;;15.30;3.08;;;;;;;;;;5011303;28;20018;-72
2022/09/02 13:17:03;;;;;;;14.15;3.20;;;;;;;;;;5010091;28;20037;-72
2022/09/02 13:19:31;;;;;;;5.10;2.50;;;;;;;;;;5008049;28;20030;-72
2022/09/02 13:22:12;;;;;;;6.80;2.80;;;;;;;;;;5014986;28;20034;-72
2022/09/02 13:25:11;;;;;;;4.50;2.92;;;;;;;;;;5010159;28;21023;-72
2022/09/02 13:27:55;;;;;;;6.70;2.55;;;;;;;;;;5009558;28;20030;-72
2022/09/02 13:30:45;;;;;;;4.45;2.60;;;;;;;;;;5017551;28;20063;-72
2022/09/02 13:33:11;;;;;;;4.60;2.45;;;;;;;;;;5012205;28;20038;-71
2022/09/02 13:35:39;;;;;;;5.93;2.63;;;;;;;;;;5014218;28;20042;-72
2022/09/02 13:38:04;;;;;;;5.57;2.65;;;;;;;;;;5008900;28;20075;-71
2022/09/02 13:40:32;;;;;;;5.88;2.75;;;;;;;;;;5008851;28;20018;-72
2022/09/02 13:43:00;;;;;;;4.22;2.38;;;;;;;;;;5006788;28;20033;-72
2022/09/02 13:45:36;;;;;;;5.80;2.70;;;;;;;;;;5008031;28;20390;-71
2022/09/02 13:48:07;;;;;;;6.88;2.75;;;;;;;;;;5006335;28;20034;-72
2022/09/02 13:50:33;;;;;;;6.25;2.55;;;;;;;;;;5007740;28;20413;-72
2022/09/02 13:53:07;;;;;;;3.95;2.70;;;;;;;;;;5007215;28;20030;-71
2022/09/02 13:55:33;;;;;;;5.55;2.70;;;;;;;;;;5009172;28;20037;-72
2022/09/02 13:58:07;;;;;;;4.07;2.67;;;;;;;;;;5006555;28;20151;-72
2022/09/02 14:00:37;;;;;;;3.80;2.60;;;;;;;;;;5008901;28;20068;-73
2022/09/02 14:03:12;;;;;;;5.03;2.67;;;;;;;;;;5009386;28;20060;-72
2022/09/02 14:05:40;;;;;;;6.15;2.70;;;;;;;;;;5005472;28;20034;-72
2022/09/02 14:08:10;;;;;;;9.50;2.70;;;;;;;;;;5002372;28;20042;-74
2022/09/02 14:10:37;;;;;;;;;;;;;;;;;;5009138;28;20430;-73
2022/09/02 14:13:06;;;;;;;5.50;2.58;;;;;;;;;;5007386;28;20486;-73
2022/09/02 14:15:32;;;;;;;6.05;2.60;;;;;;;;;;5006176;28;20109;-73
2022/09/02 14:18:07;;;;;;;5.80;2.65;;;;;;;;;;5006317;28;20038;-72
2022/09/02 14:20:33;;;;;;;7.00;2.88;;;;;;;;;;5006150;28;20644;-72
2022/09/02 14:22:59;;;;;;;6.95;3.00;;;;;;;;;;5006413;28;20055;-71
2022/09/02 14:25:35;;;;;;;4.20;2.47;;;;;;;;;;5006128;28;20547;-73
2022/09/02 14:28:17;;;;;;;5.10;2.40;;;;;;;;;;5006011;28;20026;-73
2022/09/02 14:30:54;;;;;;;4.35;2.45;;;;;;;;;;5006097;28;20105;-72
2022/09/02 14:33:35;;;;;;;5.70;2.65;;;;;;;;;;4988904;28;20546;-72
2022/09/02 14:36:27;;;;;;;4.00;2.42;;;;;;;;;;5005851;28;20101;-73
2022/09/02 14:38:56;;;;;;;6.25;2.78;;;;;;;;;;5005401;28;20048;-73
2022/09/02 14:41:24;;;;;;;7.72;2.70;;;;;;;;;;4988583;28;20397;-73
2022/09/02 14:43:53;;;;;;;6.65;2.53;;;;;;;;;;5003094;28;20053;-72
2022/09/02 14:46:32;;;;;;;7.05;2.70;;;;;;;;;;4995376;28;20030;-72
2022/09/02 14:49:03;;;;;;;8.07;2.90;;;;;;;;;;4996819;28;20409;-76
2022/09/02 14:51:36;;;;;;;5.05;2.55;;;;;;;;;;5005205;28;20057;-76
2022/09/02 14:54:03;;;;;;;3.30;2.25;;;;;;;;;;5009383;28;20030;-74
2022/09/02 14:56:49;;;;;;;6.20;2.30;;;;;;;;;;5006778;28;20038;-74
2022/09/02 14:59:15;;;;;;;4.22;2.50;;;;;;;;;;5009800;28;20026;-74
2022/09/02 15:01:45;;;;;;;5.22;2.60;;;;;;;;;;5010090;28;20028;-74
2022/09/02 15:04:11;;;;;;;4.57;2.40;;;;;;;;;;5012194;28;20524;-74
2022/09/02 15:06:36;;;;;;;7.40;2.60;;;;;;;;;;5010179;28;20054;-73